createdAt,value
2023-01-21T00:00:20.197Z,0.75
2023-01-21T00:02:48.919Z,0.85
2023-01-21T00:05:17.808Z,0.83
2023-01-21T00:12:50.711Z,0.78
2023-01-21T00:15:18.265Z,0.81
2023-01-21T00:17:45.564Z,0.84
2023-01-21T00:20:13.397Z,0.75
2023-01-21T00:22:40.988Z,0.80
2023-01-21T00:25:09.353Z,0.74
2023-01-21T00:27:36.839Z,0.67
2023-01-21T00:32:46.946Z,0.73
2023-01-21T00:35:14.712Z,0.76
2023-01-21T00:37:42.026Z,0.75
2023-01-21T00:40:11.484Z,0.77
2023-01-21T00:42:38.967Z,0.67
2023-01-21T00:45:08.757Z,0.69
2023-01-21T00:47:36.352Z,0.83
2023-01-21T00:53:42.824Z,0.66
2023-01-21T00:56:13.550Z,0.64
2023-01-21T00:58:42.729Z,0.64
2023-01-21T01:01:13.381Z,0.66
2023-01-21T01:03:43.738Z,0.68
2023-01-21T01:06:16.140Z,0.59
2023-01-21T01:08:47.089Z,0.59
2023-01-21T01:11:16.159Z,0.60
2023-01-21T01:13:45.657Z,0.55
2023-01-21T01:16:16.476Z,0.57
2023-01-21T01:18:45.842Z,0.59
2023-01-21T01:21:17.589Z,0.57
2023-01-21T01:23:48.736Z,0.52
2023-01-21T01:26:19.783Z,0.56
2023-01-21T01:28:49.208Z,0.57
2023-01-21T01:31:21.489Z,0.52
2023-01-21T01:33:50.594Z,0.44
2023-01-21T01:36:23.696Z,0.41
2023-01-21T01:38:55.125Z,0.43
2023-01-21T01:41:27.504Z,0.32
2023-01-21T01:44:00.399Z,0.32
2023-01-21T01:46:31.871Z,0.36
2023-01-21T01:49:09.179Z,0.26
2023-01-21T01:51:48.989Z,0.23
2023-01-21T01:54:24.186Z,0.23
2023-01-21T01:57:01.212Z,0.24
2023-01-21T01:59:33.145Z,0.25
2023-01-21T02:02:09.951Z,0.37
2023-01-21T02:04:45.422Z,0.33
2023-01-21T02:07:15.039Z,0.23
2023-01-21T02:09:45.248Z,0.33
2023-01-21T02:17:42.641Z,0.30
2023-01-21T02:20:59.364Z,0.13
2023-01-21T02:23:57.039Z,0.20
2023-01-21T02:27:18.356Z,0.18
2023-01-21T02:31:00.487Z,0.24
2023-01-21T02:34:06.249Z,0.28
2023-01-21T02:36:51.497Z,0.33
2023-01-21T02:39:36.631Z,0.22
2023-01-21T02:42:11.653Z,0.26
2023-01-21T02:44:44.209Z,0.34
2023-01-21T02:47:32.330Z,0.30
2023-01-21T02:50:09.428Z,0.27
2023-01-21T02:52:38.063Z,0.26
2023-01-21T02:55:13.858Z,0.22
2023-01-21T02:57:48.368Z,0.28
2023-01-21T03:00:25.463Z,0.25
2023-01-21T03:03:26.133Z,0.18
2023-01-21T03:06:46.200Z,0.21
2023-01-21T03:09:24.072Z,0.24
2023-01-21T03:12:09.168Z,0.25
2023-01-21T03:15:05.971Z,0.18
2023-01-21T03:17:42.812Z,0.17
2023-01-21T03:20:19.161Z,0.25
2023-01-21T03:22:53.837Z,0.12
2023-01-21T03:25:27.730Z,0.18
2023-01-21T03:27:58.106Z,0.01
2023-01-21T03:30:29.183Z,-0.06
2023-01-21T03:38:10.196Z,0.06
2023-01-21T03:40:43.298Z,0.09
2023-01-21T03:43:11.001Z,0.06
2023-01-21T03:45:49.368Z,0.10
2023-01-21T03:48:28.603Z,0.08
2023-01-21T03:51:02.730Z,0.11
2023-01-21T03:53:32.900Z,-0.04
2023-01-21T03:56:01.513Z,-0.04
2023-01-21T03:58:31.072Z,0.04
2023-01-21T04:00:59.750Z,-0.03
2023-01-21T04:03:28.798Z,0.00
2023-01-21T04:05:57.463Z,-0.11
2023-01-21T04:08:26.177Z,-0.02
2023-01-21T04:10:56.299Z,0.05
2023-01-21T04:13:24.981Z,0.02
2023-01-21T04:15:53.668Z,0.01
2023-01-21T04:18:22.391Z,-0.02
2023-01-21T04:20:51.073Z,0.04
2023-01-21T04:23:19.782Z,0.03
2023-01-21T04:25:49.829Z,0.13
2023-01-21T04:28:21.250Z,0.14
2023-01-21T04:30:50.614Z,0.21
2023-01-21T04:33:19.611Z,0.20
2023-01-21T04:35:48.353Z,0.11
2023-01-21T04:38:17.090Z,0.07
2023-01-21T04:40:46.006Z,0.13
2023-01-21T04:43:14.754Z,0.06
2023-01-21T04:45:44.923Z,0.02
2023-01-21T04:48:13.689Z,0.01
2023-01-21T04:50:42.403Z,-0.01
2023-01-21T04:53:11.226Z,0.04
2023-01-21T04:55:40.097Z,0.05
2023-01-21T05:03:08.718Z,0.03
2023-01-21T05:05:36.141Z,0.10
2023-01-21T05:08:03.743Z,0.05
2023-01-21T05:10:31.170Z,-0.04
2023-01-21T05:12:59.799Z,-0.08
2023-01-21T05:15:27.335Z,-0.08
2023-01-21T05:17:56.083Z,-0.03
2023-01-21T05:20:26.447Z,-0.13
2023-01-21T05:22:57.942Z,-0.13
2023-01-21T05:25:29.062Z,-0.16
2023-01-21T05:27:58.752Z,-0.11
2023-01-21T05:30:27.949Z,-0.20
2023-01-21T05:32:58.241Z,-0.21
2023-01-21T05:35:28.945Z,-0.22
2023-01-21T05:38:00.400Z,-0.27
2023-01-21T05:40:29.598Z,-0.29
2023-01-21T05:42:58.943Z,-0.23
2023-01-21T05:45:28.599Z,-0.16
2023-01-21T05:47:57.576Z,-0.12
2023-01-21T05:50:32.984Z,-0.17
2023-01-21T05:53:03.200Z,-0.14
2023-01-21T05:55:33.170Z,-0.13
2023-01-21T05:58:02.797Z,-0.13
2023-01-21T06:00:31.964Z,-0.21
2023-01-21T06:03:03.142Z,-0.25
2023-01-21T06:05:34.383Z,-0.17
2023-01-21T06:08:04.487Z,-0.19
2023-01-21T06:10:34.213Z,-0.23
2023-01-21T06:13:03.809Z,-0.20
2023-01-21T06:15:33.741Z,-0.13
2023-01-21T06:18:02.789Z,-0.18
2023-01-21T06:20:33.847Z,-0.26
2023-01-21T06:23:04.223Z,-0.21
2023-01-21T06:25:34.528Z,-0.18
2023-01-21T06:28:04.333Z,-0.11
2023-01-21T06:30:34.061Z,-0.13
2023-01-21T06:33:04.400Z,-0.13
2023-01-21T06:35:36.025Z,-0.16
2023-01-21T06:38:05.251Z,-0.12
2023-01-21T06:40:34.640Z,-0.13
2023-01-21T06:43:04.856Z,-0.09
2023-01-21T06:45:38.925Z,-0.15
2023-01-21T06:48:08.223Z,-0.21
2023-01-21T06:50:41.132Z,-0.21
2023-01-21T06:53:10.388Z,-0.23
2023-01-21T06:55:39.548Z,-0.31
2023-01-21T06:58:08.693Z,-0.28
2023-01-21T07:01:04.423Z,-0.23
2023-01-21T07:03:33.261Z,-0.19
2023-01-21T07:06:03.822Z,-0.21
2023-01-21T07:08:36.598Z,-0.22
2023-01-21T07:11:09.703Z,-0.35
2023-01-21T07:13:41.533Z,-0.28
2023-01-21T07:16:11.190Z,-0.25
2023-01-21T07:18:41.622Z,-0.27
2023-01-21T07:21:14.518Z,-0.22
2023-01-21T07:23:45.090Z,-0.25
2023-01-21T07:26:19.269Z,-0.29
2023-01-21T07:28:50.525Z,-0.22
2023-01-21T07:31:19.834Z,-0.18
2023-01-21T07:33:50.263Z,-0.18
2023-01-21T07:36:20.937Z,-0.13
2023-01-21T07:38:50.166Z,-0.19
2023-01-21T07:41:19.751Z,-0.16
2023-01-21T07:43:49.848Z,-0.19
2023-01-21T07:46:20.290Z,-0.15
2023-01-21T07:48:51.194Z,-0.09
2023-01-21T07:51:23.668Z,-0.07
2023-01-21T07:53:54.056Z,-0.09
2023-01-21T07:56:25.186Z,-0.09
2023-01-21T07:58:54.029Z,-0.13
2023-01-21T08:01:27.108Z,-0.16
2023-01-21T08:03:55.987Z,-0.10
2023-01-21T08:06:27.205Z,0.01
2023-01-21T08:08:56.869Z,0.00
2023-01-21T08:11:26.309Z,-0.08
2023-01-21T08:13:55.547Z,-0.07
2023-01-21T08:16:24.559Z,-0.02
2023-01-21T08:18:53.455Z,0.05
2023-01-21T08:21:23.106Z,0.01
2023-01-21T08:23:53.475Z,-0.03
2023-01-21T08:26:24.777Z,-0.04
2023-01-21T08:28:55.807Z,-0.09
2023-01-21T08:31:41.137Z,-0.11
2023-01-21T08:34:09.861Z,0.05
2023-01-21T08:36:40.285Z,0.02
2023-01-21T08:39:11.846Z,0.04
2023-01-21T08:41:41.417Z,0.03
2023-01-21T08:44:10.496Z,0.09
2023-01-21T08:46:39.639Z,0.01
2023-01-21T08:49:09.577Z,0.13
2023-01-21T08:51:38.654Z,0.08
2023-01-21T08:54:10.787Z,0.14
2023-01-21T08:56:40.017Z,0.07
2023-01-21T08:59:09.451Z,0.08
2023-01-21T09:01:41.253Z,0.12
2023-01-21T09:04:10.764Z,0.11
2023-01-21T09:06:39.720Z,0.16
2023-01-21T09:09:12.939Z,0.15
2023-01-21T09:11:41.685Z,0.22
2023-01-21T09:14:10.314Z,0.23
2023-01-21T09:16:39.214Z,0.25
2023-01-21T09:19:07.953Z,0.35
2023-01-21T09:21:37.975Z,0.34
2023-01-21T09:24:09.287Z,0.32
2023-01-21T09:26:37.994Z,0.23
2023-01-21T09:29:06.674Z,0.23
2023-01-21T09:31:35.669Z,0.26
2023-01-21T09:34:06.591Z,0.26
2023-01-21T09:36:36.378Z,0.23
2023-01-21T09:39:06.246Z,0.19
2023-01-21T09:41:40.204Z,0.29
2023-01-21T09:44:21.991Z,0.25
2023-01-21T09:46:59.592Z,0.32
2023-01-21T09:49:32.188Z,0.32
2023-01-21T09:52:17.800Z,0.29
2023-01-21T09:54:46.778Z,0.29
2023-01-21T09:58:07.685Z,0.31
2023-01-21T10:00:45.232Z,0.35
2023-01-21T10:03:28.961Z,0.39
2023-01-21T10:06:22.985Z,0.35
2023-01-21T10:09:24.238Z,0.41
2023-01-21T10:12:22.550Z,0.38
2023-01-21T10:15:31.626Z,0.37
2023-01-21T10:18:04.711Z,0.39
2023-01-21T10:20:41.529Z,0.50
2023-01-21T10:23:21.735Z,0.49
2023-01-21T10:25:51.989Z,0.58
2023-01-21T10:28:26.067Z,0.52
2023-01-21T10:31:01.769Z,0.47
2023-01-21T10:33:34.765Z,0.57
2023-01-21T10:36:43.816Z,0.52
2023-01-21T10:39:26.646Z,0.52
2023-01-21T10:42:19.111Z,0.56
2023-01-21T10:44:58.878Z,0.53
2023-01-21T10:47:44.348Z,0.57
2023-01-21T10:50:40.814Z,0.60
2023-01-21T10:53:22.265Z,0.60
2023-01-21T10:56:15.226Z,0.61
2023-01-21T10:58:49.894Z,0.62
2023-01-21T11:01:28.948Z,0.64
2023-01-21T11:04:05.956Z,0.70
2023-01-21T11:06:37.592Z,0.76
2023-01-21T11:09:12.264Z,0.69
2023-01-21T11:11:42.955Z,0.75
2023-01-21T11:14:13.741Z,0.72
2023-01-21T11:16:49.219Z,0.69
2023-01-21T11:19:26.215Z,0.69
2023-01-21T11:22:05.188Z,0.69
2023-01-21T11:24:45.350Z,0.76
2023-01-21T11:27:22.418Z,0.78
2023-01-21T11:29:52.673Z,0.80
2023-01-21T11:32:24.332Z,0.88
2023-01-21T11:35:04.820Z,0.87
2023-01-21T11:37:35.128Z,0.85
2023-01-21T11:40:14.954Z,0.92
2023-01-21T11:42:49.630Z,0.89
2023-01-21T11:45:30.831Z,0.88
2023-01-21T11:48:04.408Z,0.82
2023-01-21T11:50:38.705Z,0.88
2023-01-21T11:53:17.783Z,0.89
2023-01-21T11:55:51.534Z,0.96
2023-01-21T11:58:30.249Z,0.97
2023-01-21T12:01:03.631Z,0.93
2023-01-21T12:03:38.565Z,0.91
2023-01-21T12:06:10.745Z,0.92
2023-01-21T12:08:42.738Z,0.90
2023-01-21T12:11:12.174Z,0.87
2023-01-21T12:13:54.748Z,0.96
2023-01-21T12:16:36.200Z,0.93
2023-01-21T12:19:40.233Z,0.93
2023-01-21T12:22:41.373Z,0.98
2023-01-21T12:25:52.805Z,0.87
2023-01-21T12:28:50.555Z,0.88
2023-01-21T12:31:33.020Z,0.84
2023-01-21T12:34:17.287Z,0.86
2023-01-21T12:36:53.154Z,0.93
2023-01-21T12:39:30.407Z,0.92
2023-01-21T12:42:12.423Z,0.92
2023-01-21T12:44:52.577Z,0.93
2023-01-21T12:47:38.267Z,0.90
2023-01-21T12:50:28.263Z,1.01
2023-01-21T12:53:16.312Z,1.02
2023-01-21T12:56:04.113Z,1.01
2023-01-21T12:58:38.728Z,1.02
2023-01-21T13:01:14.910Z,1.04
2023-01-21T13:04:01.143Z,0.99
2023-01-21T13:06:53.669Z,1.01
2023-01-21T13:09:36.255Z,1.06
2023-01-21T13:12:39.614Z,1.07
2023-01-21T13:15:20.087Z,1.10
2023-01-21T13:17:57.234Z,1.09
2023-01-21T13:20:27.044Z,1.13
2023-01-21T13:23:11.726Z,1.14
2023-01-21T13:25:52.716Z,1.13
2023-01-21T13:28:36.164Z,1.17
2023-01-21T13:31:19.377Z,1.12
2023-01-21T13:34:03.037Z,1.14
2023-01-21T13:36:55.804Z,1.12
2023-01-21T13:39:45.188Z,1.14
2023-01-21T13:42:38.791Z,1.25
2023-01-21T13:45:31.764Z,1.28
2023-01-21T13:48:58.867Z,1.25
2023-01-21T13:51:45.122Z,1.18
2023-01-21T13:54:55.551Z,1.18
2023-01-21T13:57:45.780Z,1.16
2023-01-21T14:00:22.311Z,1.15
2023-01-21T14:03:04.183Z,1.10
2023-01-21T14:05:42.364Z,1.03
2023-01-21T14:08:20.467Z,1.10
2023-01-21T14:11:00.367Z,1.09
2023-01-21T14:14:18.817Z,1.09
2023-01-21T14:17:27.821Z,1.10
2023-01-21T14:21:13.409Z,0.98
2023-01-21T14:24:16.885Z,1.01
2023-01-21T14:27:17.847Z,0.93
2023-01-21T14:29:56.419Z,0.96
2023-01-21T14:36:17.257Z,0.96
2023-01-21T14:39:07.457Z,0.92
2023-01-21T14:42:12.735Z,0.89
2023-01-21T14:45:02.542Z,0.91
2023-01-21T14:47:50.171Z,0.89
2023-01-21T14:51:14.435Z,0.91
2023-01-21T14:58:53.836Z,0.94
2023-01-21T15:01:34.608Z,0.99
2023-01-21T15:04:07.137Z,0.93
2023-01-21T15:06:40.157Z,0.91
2023-01-21T15:09:21.646Z,0.88
2023-01-21T15:11:58.352Z,0.90
2023-01-21T15:14:31.780Z,0.91
2023-01-21T15:17:02.052Z,0.91
2023-01-21T15:19:34.528Z,0.92
2023-01-21T15:22:27.401Z,0.91
2023-01-21T15:25:34.457Z,0.96
2023-01-21T15:28:43.592Z,0.99
2023-01-21T15:31:45.436Z,0.94
2023-01-21T15:34:19.991Z,0.99
2023-01-21T15:37:16.673Z,1.03
2023-01-21T15:40:26.559Z,1.03
2023-01-21T15:43:05.764Z,0.96
2023-01-21T15:45:49.919Z,0.97
2023-01-21T15:49:15.897Z,0.89
2023-01-21T15:52:01.578Z,0.91
2023-01-21T15:54:41.650Z,0.91
2023-01-21T15:57:37.958Z,0.95
2023-01-21T16:00:35.018Z,1.00
2023-01-21T16:03:23.703Z,1.01
2023-01-21T16:06:05.737Z,0.99
2023-01-21T16:09:02.771Z,0.99
2023-01-21T16:12:00.184Z,1.00
2023-01-21T16:14:52.748Z,0.97
2023-01-21T16:22:08.269Z,0.99
2023-01-21T16:24:47.564Z,0.96
2023-01-21T16:27:24.731Z,0.95
2023-01-21T16:30:02.517Z,1.04
2023-01-21T16:32:37.345Z,0.99
2023-01-21T16:35:12.574Z,1.05
2023-01-21T16:38:24.752Z,1.04
2023-01-21T16:41:25.280Z,1.00
2023-01-21T16:43:59.600Z,1.04
2023-01-21T16:46:34.991Z,1.00
2023-01-21T16:49:16.816Z,1.03
2023-01-21T16:51:56.706Z,1.03
2023-01-21T16:54:31.459Z,1.04
2023-01-21T16:57:15.348Z,1.09
2023-01-21T16:59:49.462Z,1.05
2023-01-21T17:02:23.988Z,1.06
2023-01-21T17:04:56.114Z,1.11
2023-01-21T17:07:31.788Z,1.12
2023-01-21T17:10:18.805Z,1.08
2023-01-21T17:12:53.680Z,1.11
2023-01-21T17:15:33.420Z,1.10
2023-01-21T17:18:04.501Z,1.10
2023-01-21T17:20:42.618Z,1.12
2023-01-21T17:23:19.220Z,1.14
2023-01-21T17:25:58.196Z,1.12
2023-01-21T17:28:33.597Z,1.15
2023-01-21T17:31:28.076Z,1.15
2023-01-21T17:34:20.353Z,1.06
2023-01-21T17:36:52.603Z,1.06
2023-01-21T17:40:01.365Z,1.06
2023-01-21T17:42:42.602Z,1.08
2023-01-21T17:45:23.808Z,1.11
2023-01-21T17:48:08.668Z,1.11
2023-01-21T17:50:39.064Z,1.05
2023-01-21T17:53:21.623Z,1.03
2023-01-21T17:56:00.940Z,1.04
2023-01-21T17:58:56.058Z,1.12
2023-01-21T18:01:26.320Z,1.08
2023-01-21T18:03:55.237Z,1.05
2023-01-21T18:06:29.310Z,1.08
2023-01-21T18:08:59.210Z,1.10
2023-01-21T18:11:28.354Z,1.08
2023-01-21T18:13:59.519Z,1.12
2023-01-21T18:16:28.776Z,1.06
2023-01-21T18:18:58.237Z,1.07
2023-01-21T18:21:27.439Z,1.05
2023-01-21T18:24:13.016Z,1.10
2023-01-21T18:26:42.341Z,1.08
2023-01-21T18:29:13.453Z,1.12
2023-01-21T18:31:42.405Z,1.12
2023-01-21T18:34:27.164Z,1.12
2023-01-21T18:36:57.757Z,1.12
2023-01-21T18:39:26.594Z,1.17
2023-01-21T18:41:55.271Z,1.12
2023-01-21T18:44:25.890Z,1.14
2023-01-21T18:46:54.580Z,1.12
2023-01-21T18:49:23.323Z,1.15
2023-01-21T18:51:52.491Z,1.18
2023-01-21T18:54:21.293Z,1.20
2023-01-21T18:56:50.036Z,1.24
2023-01-21T18:59:22.645Z,1.28
2023-01-21T19:01:52.870Z,1.25
2023-01-21T19:04:21.598Z,1.26
2023-01-21T19:06:51.088Z,1.27
2023-01-21T19:09:23.109Z,1.25
2023-01-21T19:11:52.896Z,1.23
2023-01-21T19:14:23.213Z,1.25
2023-01-21T19:16:53.425Z,1.21
2023-01-21T19:19:22.263Z,1.22
2023-01-21T19:21:51.149Z,1.27
2023-01-21T19:24:19.996Z,1.30
2023-01-21T19:26:49.088Z,1.24
2023-01-21T19:29:22.920Z,1.24
2023-01-21T19:31:55.120Z,1.25
2023-01-21T19:34:26.212Z,1.30
2023-01-21T19:36:55.152Z,1.32
2023-01-21T19:39:25.433Z,1.32
2023-01-21T19:42:07.299Z,1.34
2023-01-21T19:44:37.144Z,1.37
2023-01-21T19:47:15.948Z,1.40
2023-01-21T19:49:44.810Z,1.37
2023-01-21T19:52:15.591Z,1.38
2023-01-21T19:54:44.916Z,1.33
2023-01-21T19:57:16.720Z,1.40
2023-01-21T19:59:47.331Z,1.43
2023-01-21T20:02:17.812Z,1.46
2023-01-21T20:04:47.519Z,1.51
2023-01-21T20:07:18.046Z,1.53
2023-01-21T20:09:46.907Z,1.55
2023-01-21T20:12:15.643Z,1.58
2023-01-21T20:14:44.360Z,1.59
2023-01-21T20:17:16.728Z,1.58
2023-01-21T20:19:48.369Z,1.51
2023-01-21T20:22:17.481Z,1.55
2023-01-21T20:24:46.262Z,1.58
2023-01-21T20:27:16.206Z,1.57
2023-01-21T20:29:55.506Z,1.57
2023-01-21T20:32:26.529Z,1.53
2023-01-21T20:34:55.483Z,1.60
2023-01-21T20:37:24.554Z,1.58
2023-01-21T20:39:53.637Z,1.54
2023-01-21T20:42:22.656Z,1.55
2023-01-21T20:44:52.306Z,1.58
2023-01-21T20:47:32.500Z,1.61
2023-01-21T20:50:21.011Z,1.60
2023-01-21T20:52:51.829Z,1.59
2023-01-21T20:55:24.350Z,1.56
2023-01-21T20:57:53.995Z,1.63
2023-01-21T21:00:25.710Z,1.64
2023-01-21T21:02:56.347Z,1.66
2023-01-21T21:05:28.431Z,1.60
2023-01-21T21:07:57.677Z,1.58
2023-01-21T21:10:34.652Z,1.62
2023-01-21T21:13:04.277Z,1.58
2023-01-21T21:15:36.384Z,1.58
2023-01-21T21:18:06.144Z,1.67
2023-01-21T21:20:39.900Z,1.65
2023-01-21T21:23:16.726Z,1.69
2023-01-21T21:25:48.707Z,1.70
2023-01-21T21:28:19.722Z,1.64
2023-01-21T21:30:49.178Z,1.66
2023-01-21T21:33:23.180Z,1.56
2023-01-21T21:35:53.257Z,1.56
2023-01-21T21:38:22.979Z,1.59
2023-01-21T21:40:53.321Z,1.60
2023-01-21T21:43:40.429Z,1.64
2023-01-21T21:46:42.251Z,1.64
2023-01-21T21:49:11.790Z,1.64
2023-01-21T21:51:45.925Z,1.64
2023-01-21T21:54:18.273Z,1.65
2023-01-21T21:56:47.720Z,1.60
